Time;durP1;ratioP1;P1;durP2;ratioP2;P2;SDS_P1;SDS_P2;PMS_P1;PMS_P2;Temp;Humidity;BMP_temperature;BMP_pressure;BME280_temperature;BME280_humidity;BME280_pressure;Samples;Min_cycle;Max_cycle;Signal;HPM_P1;HPM_P2
2021/12/21 00:00:32;;;;;;;1.67;1.37;;;3.40;99.90;;;;;;5040118;28;20201;-95
2021/12/21 00:03:04;;;;;;;3.83;1.77;;;3.30;99.90;;;;;;5041418;28;20288;-95
2021/12/21 00:05:36;;;;;;;2.03;1.40;;;3.30;99.90;;;;;;5039419;28;20680;-95
2021/12/21 00:08:12;;;;;;;2.23;1.20;;;3.30;99.90;;;;;;5039103;28;20251;-94
2021/12/21 00:10:45;;;;;;;2.17;1.33;;;3.20;99.90;;;;;;5039466;28;20624;-94
2021/12/21 00:13:35;;;;;;;2.37;1.50;;;3.20;99.90;;;;;;5039646;28;20656;-95
2021/12/21 00:16:15;;;;;;;2.67;1.53;;;3.20;99.90;;;;;;5037978;28;20235;-96
2021/12/21 00:19:04;;;;;;;2.90;1.90;;;3.20;99.90;;;;;;5040263;28;20264;-94
2021/12/21 00:21:41;;;;;;;1.90;1.40;;;3.20;99.90;;;;;;5034624;28;20232;-94
2021/12/21 00:24:20;;;;;;;2.80;1.60;;;3.20;99.90;;;;;;5018099;28;20216;-95
2021/12/21 00:26:51;;;;;;;3.23;1.70;;;3.10;99.90;;;;;;5020761;28;20246;-94
2021/12/21 00:29:23;;;;;;;3.50;1.30;;;3.10;99.90;;;;;;5020344;28;20214;-94
2021/12/21 00:31:54;;;;;;;2.97;1.80;;;3.10;99.90;;;;;;5020033;28;20301;-95
2021/12/21 00:34:25;;;;;;;2.43;1.63;;;3.10;99.90;;;;;;5019254;28;20210;-95
2021/12/21 00:36:56;;;;;;;2.83;1.43;;;3.10;99.90;;;;;;5024344;28;20206;-96
2021/12/21 00:39:29;;;;;;;5.20;1.63;;;3.10;99.90;;;;;;5030213;28;20248;-95
2021/12/21 00:42:01;;;;;;;2.47;1.77;;;3.20;99.90;;;;;;5037881;28;20221;-95
2021/12/21 00:44:32;;;;;;;2.07;1.43;;;3.10;99.90;;;;;;5037179;28;20196;-95
2021/12/21 00:47:04;;;;;;;2.73;1.80;;;3.10;99.90;;;;;;5037744;28;20197;-91
2021/12/21 00:49:36;;;;;;;3.37;1.77;;;3.10;99.90;;;;;;5038070;28;20205;-94
2021/12/21 00:52:08;;;;;;;2.13;1.50;;;3.10;99.90;;;;;;5123319;22;20228;-95
2021/12/21 00:54:41;;;;;;;3.20;1.60;;;3.10;99.90;;;;;;5057344;28;20192;-95
2021/12/21 00:57:13;;;;;;;3.17;1.90;;;3.10;99.90;;;;;;5051865;28;20558;-94
2021/12/21 00:59:44;;;;;;;3.67;2.20;;;2.90;99.90;;;;;;5042263;28;20323;-95
2021/12/21 01:02:15;;;;;;;3.33;2.00;;;2.90;99.90;;;;;;5027324;28;20189;-95
2021/12/21 01:04:49;;;;;;;4.10;1.90;;;2.90;99.90;;;;;;5028983;28;20212;-95
2021/12/21 01:07:28;;;;;;;4.20;2.10;;;2.90;99.90;;;;;;5026453;28;20241;-94
2021/12/21 01:12:56;;;;;;;2.93;1.93;;;2.80;99.90;;;;;;5025384;28;20205;-93
2021/12/21 01:15:44;;;;;;;4.97;2.20;;;2.80;99.90;;;;;;5025581;28;20217;-93
2021/12/21 01:18:21;;;;;;;1.80;1.53;;;2.80;99.90;;;;;;5025339;28;20225;-94
2021/12/21 01:21:03;;;;;;;4.93;1.80;;;3.00;99.90;;;;;;5029867;28;20214;-94
2021/12/21 01:26:51;;;;;;;4.47;2.00;;;2.90;99.90;;;;;;5019823;28;20273;-94
2021/12/21 01:29:29;;;;;;;3.50;2.40;;;2.90;99.90;;;;;;5020718;28;20259;-94
2021/12/21 01:32:07;;;;;;;3.17;2.37;;;2.90;99.90;;;;;;5038268;28;20204;-95
2021/12/21 01:34:48;;;;;;;7.47;2.47;;;2.90;99.90;;;;;;5042479;28;20276;-94
2021/12/21 01:37:25;;;;;;;3.73;2.10;;;2.80;99.90;;;;;;5046093;28;20204;-95
2021/12/21 01:40:04;;;;;;;3.70;2.17;;;2.70;99.90;;;;;;5042869;28;20264;-95
2021/12/21 01:42:52;;;;;;;3.20;2.03;;;2.70;99.90;;;;;;5041255;28;20231;-95
2021/12/21 01:51:02;;;;;;;3.87;2.20;;;2.60;99.90;;;;;;5038269;28;20205;-95
2021/12/21 01:53:35;;;;;;;4.93;1.97;;;2.60;99.90;;;;;;5032992;28;20221;-95
2021/12/21 01:56:07;;;;;;;4.20;2.30;;;2.60;99.90;;;;;;5019870;28;20208;-95
2021/12/21 01:58:41;;;;;;;3.33;2.63;;;2.70;99.90;;;;;;5031022;28;20268;-94
2021/12/21 02:01:14;;;;;;;4.23;2.50;;;2.60;99.90;;;;;;5040459;28;20228;-95
2021/12/21 02:03:47;;;;;;;5.40;2.93;;;2.60;99.90;;;;;;5040792;28;20209;-95
2021/12/21 02:06:20;;;;;;;6.60;3.27;;;2.60;99.90;;;;;;5038621;28;20208;-95
2021/12/21 02:08:52;;;;;;;5.00;3.37;;;2.50;99.90;;;;;;5038461;28;20662;-95
2021/12/21 02:11:25;;;;;;;3.63;2.70;;;2.60;99.90;;;;;;5038953;28;20212;-96
2021/12/21 02:13:57;;;;;;;4.07;2.80;;;2.60;99.90;;;;;;5038966;28;20315;-95
2021/12/21 02:16:35;;;;;;;5.23;2.87;;;2.60;99.90;;;;;;5038178;28;20299;-93
2021/12/21 02:19:16;;;;;;;4.67;2.60;;;2.50;99.90;;;;;;5039075;28;20263;-94
2021/12/21 02:21:53;;;;;;;3.73;2.47;;;2.50;99.90;;;;;;5039143;28;20197;-95
2021/12/21 02:24:37;;;;;;;3.40;2.10;;;2.60;99.90;;;;;;5039338;28;20211;-93
2021/12/21 02:27:18;;;;;;;7.50;3.10;;;2.60;99.90;;;;;;5041752;28;20232;-96
2021/12/21 02:29:52;;;;;;;4.20;3.17;;;2.60;99.90;;;;;;5038767;28;20205;-94
2021/12/21 02:32:24;;;;;;;7.03;3.90;;;2.60;99.90;;;;;;5038832;28;20197;-96
2021/12/21 02:34:55;;;;;;;6.97;3.90;;;2.50;99.90;;;;;;5041794;28;20209;-96
2021/12/21 02:37:29;;;;;;;7.27;4.77;;;2.60;99.90;;;;;;5039087;28;20240;-96
2021/12/21 02:40:00;;;;;;;4.70;3.23;;;2.60;99.90;;;;;;5040402;28;20240;-95
2021/12/21 02:42:31;;;;;;;6.13;2.83;;;2.60;99.90;;;;;;5041448;28;20216;-95
2021/12/21 02:45:06;;;;;;;4.80;3.37;;;2.50;99.90;;;;;;5042713;28;20220;-96
2021/12/21 02:47:37;;;;;;;3.60;2.60;;;2.50;99.90;;;;;;5041275;28;20286;-96
2021/12/21 02:50:10;;;;;;;6.17;2.80;;;2.50;99.90;;;;;;5042241;28;20236;-95
2021/12/21 02:52:43;;;;;;;5.13;3.30;;;2.40;99.90;;;;;;5042454;28;20209;-96
2021/12/21 02:55:16;;;;;;;4.50;2.70;;;2.40;99.90;;;;;;5042504;28;20213;-96
2021/12/21 02:57:48;;;;;;;4.10;2.87;;;2.40;99.90;;;;;;5042457;28;20247;-96
2021/12/21 03:00:19;;;;;;;5.07;3.23;;;2.40;99.90;;;;;;5054872;28;20279;-93
2021/12/21 03:02:51;;;;;;;5.20;3.53;;;2.50;99.90;;;;;;5059740;28;20224;-95
2021/12/21 03:05:23;;;;;;;8.53;4.60;;;2.50;99.90;;;;;;5058316;28;20262;-96
2021/12/21 03:08:08;;;;;;;74.83;38.93;;;2.50;99.90;;;;;;5054864;28;20555;-96
2021/12/21 03:10:57;;;;;;;8.70;6.67;;;2.50;99.90;;;;;;5049361;28;20262;-95
2021/12/21 03:16:17;;;;;;;6.53;3.73;;;2.60;99.90;;;;;;5046576;28;20251;-96
2021/12/21 03:18:49;;;;;;;6.63;4.00;;;2.50;99.90;;;;;;5046435;28;20212;-96
2021/12/21 03:21:20;;;;;;;8.00;4.70;;;2.50;99.90;;;;;;5045155;28;20213;-95
2021/12/21 03:23:53;;;;;;;6.93;4.20;;;2.40;99.90;;;;;;5033299;28;20198;-95
2021/12/21 03:26:25;;;;;;;9.37;6.27;;;2.50;99.90;;;;;;5022338;28;20230;-95
2021/12/21 03:28:58;;;;;;;10.60;6.07;;;2.40;99.90;;;;;;5024148;28;20206;-95
2021/12/21 03:31:30;;;;;;;8.30;5.23;;;2.40;99.90;;;;;;5022692;28;20610;-94
2021/12/21 03:34:01;;;;;;;7.03;4.53;;;2.40;99.90;;;;;;5025059;28;20275;-95
2021/12/21 03:36:32;;;;;;;8.23;4.60;;;2.40;99.90;;;;;;5022091;28;20210;-93
2021/12/21 03:39:16;;;;;;;6.80;4.20;;;2.30;99.90;;;;;;5023807;28;20214;-96
2021/12/21 03:41:49;;;;;;;4.90;3.80;;;2.20;99.90;;;;;;5023064;28;20206;-95
2021/12/21 03:44:21;;;;;;;6.07;3.67;;;2.20;99.90;;;;;;5023344;28;20206;-95
2021/12/21 03:46:55;;;;;;;7.83;3.67;;;2.20;99.90;;;;;;5020721;28;20205;-95
2021/12/21 03:49:52;;;;;;;5.30;3.20;;;2.20;99.90;;;;;;5039800;28;20276;-94
2021/12/21 03:52:26;;;;;;;5.47;3.40;;;2.10;99.90;;;;;;5042607;28;20216;-96
2021/12/21 03:57:29;;;;;;;4.60;3.40;;;2.10;99.90;;;;;;5018651;28;20226;-94
2021/12/21 04:00:02;;;;;;;3.60;3.00;;;2.10;99.90;;;;;;5020559;28;20241;-96
2021/12/21 04:02:33;;;;;;;4.20;3.30;;;2.10;99.90;;;;;;5020006;28;20234;-96
2021/12/21 04:05:05;;;;;;;5.70;3.63;;;2.10;99.90;;;;;;5022571;28;20291;-95
2021/12/21 04:07:36;;;;;;;4.97;3.83;;;2.10;99.90;;;;;;5062912;22;20267;-95
2021/12/21 04:10:11;;;;;;;5.93;3.93;;;2.00;99.90;;;;;;5039850;28;20214;-95
2021/12/21 04:12:43;;;;;;;6.03;4.27;;;2.00;99.90;;;;;;5038825;28;20243;-94
2021/12/21 04:15:16;;;;;;;6.90;4.30;;;2.20;99.90;;;;;;5039506;28;20235;-93
2021/12/21 04:17:48;;;;;;;5.67;3.60;;;2.20;99.90;;;;;;5039897;28;20680;-94
2021/12/21 04:20:18;;;;;;;8.57;5.23;;;2.30;99.90;;;;;;5039664;28;20236;-95
2021/12/21 04:22:50;;;;;;;8.43;4.93;;;2.20;99.90;;;;;;5042397;28;20296;-95
2021/12/21 04:25:23;;;;;;;9.40;5.60;;;2.30;99.90;;;;;;5041751;28;20193;-92
2021/12/21 04:27:54;;;;;;;7.13;5.00;;;2.30;99.90;;;;;;5043725;28;20672;-93
2021/12/21 04:30:25;;;;;;;6.53;4.33;;;2.30;99.90;;;;;;5041051;28;20209;-94
2021/12/21 04:32:57;;;;;;;8.63;5.30;;;2.40;99.90;;;;;;5039152;28;20201;-95
2021/12/21 04:35:28;;;;;;;6.87;4.17;;;2.40;99.90;;;;;;5022385;28;20657;-95
2021/12/21 04:38:11;;;;;;;5.00;3.27;;;2.40;99.90;;;;;;5039787;28;20667;-95
2021/12/21 04:40:47;;;;;;;8.23;4.17;;;2.50;99.90;;;;;;5040449;28;20228;-94
2021/12/21 04:43:19;;;;;;;8.57;4.07;;;2.40;99.90;;;;;;5039347;28;20201;-94
2021/12/21 04:45:50;;;;;;;6.33;3.43;;;2.40;99.90;;;;;;5040646;28;20216;-95
2021/12/21 04:48:21;;;;;;;5.60;2.90;;;2.50;99.90;;;;;;5039718;28;20205;-94
2021/12/21 04:50:54;;;;;;;4.80;3.43;;;2.50;99.90;;;;;;5020187;28;20206;-95
2021/12/21 04:53:26;;;;;;;4.17;3.40;;;2.50;99.90;;;;;;5020599;28;20589;-95
2021/12/21 04:55:59;;;;;;;6.67;3.60;;;2.40;99.90;;;;;;5021192;28;20539;-95
2021/12/21 04:58:31;;;;;;;3.93;3.20;;;2.30;99.90;;;;;;5022280;28;20197;-95
2021/12/21 05:01:02;;;;;;;5.07;3.30;;;2.40;99.90;;;;;;5022808;28;20292;-95
2021/12/21 05:03:34;;;;;;;5.03;3.70;;;2.50;99.90;;;;;;5020988;28;20208;-95
2021/12/21 05:06:05;;;;;;;4.50;3.07;;;2.50;99.90;;;;;;5038874;28;20211;-96
2021/12/21 05:08:38;;;;;;;4.80;3.33;;;2.50;99.90;;;;;;5042471;28;20251;-94
2021/12/21 05:11:14;;;;;;;3.63;2.90;;;2.50;99.90;;;;;;5040148;28;20236;-94
2021/12/21 05:13:46;;;;;;;4.73;3.20;;;2.50;99.90;;;;;;5045147;28;20268;-94
2021/12/21 05:16:17;;;;;;;6.50;3.37;;;2.50;99.90;;;;;;5048941;28;20200;-95
2021/12/21 05:18:48;;;;;;;6.83;3.30;;;2.50;99.90;;;;;;5055745;28;20208;-93
2021/12/21 05:21:19;;;;;;;4.47;3.17;;;2.50;99.90;;;;;;5037899;28;20233;-96
2021/12/21 05:23:50;;;;;;;8.23;3.07;;;2.50;99.90;;;;;;5042180;28;20572;-95
2021/12/21 05:26:23;;;;;;;3.97;2.90;;;2.50;99.90;;;;;;5050448;28;20215;-94
2021/12/21 05:28:55;;;;;;;5.40;3.03;;;2.50;99.90;;;;;;5039416;28;20232;-94
2021/12/21 05:31:26;;;;;;;4.13;2.87;;;2.60;99.90;;;;;;5038508;28;20209;-95
2021/12/21 05:33:57;;;;;;;7.50;3.23;;;2.60;99.90;;;;;;5040023;28;20217;-94
2021/12/21 05:36:28;;;;;;;5.87;2.90;;;2.50;99.90;;;;;;5036841;28;20271;-94
2021/12/21 05:39:05;;;;;;;4.47;2.87;;;2.50;99.90;;;;;;5038006;28;20212;-94
2021/12/21 05:41:48;;;;;;;4.77;2.63;;;2.50;99.90;;;;;;5037990;28;20236;-94
2021/12/21 05:44:21;;;;;;;4.67;2.47;;;2.50;99.90;;;;;;5021802;28;20247;-94
2021/12/21 05:46:54;;;;;;;4.90;2.60;;;2.50;99.90;;;;;;5037909;28;20259;-94
2021/12/21 05:49:26;;;;;;;4.70;2.37;;;2.50;99.90;;;;;;5037806;28;20688;-95
2021/12/21 05:51:57;;;;;;;4.73;2.60;;;2.50;99.90;;;;;;5038807;28;20263;-94
2021/12/21 05:54:28;;;;;;;5.20;2.83;;;2.50;99.90;;;;;;5037472;28;20204;-94
2021/12/21 05:57:05;;;;;;;5.10;2.50;;;2.60;99.90;;;;;;5036757;28;20209;-94
2021/12/21 05:59:36;;;;;;;4.97;2.77;;;2.60;99.90;;;;;;5021786;28;20219;-95
2021/12/21 06:02:08;;;;;;;5.50;2.93;;;2.60;99.90;;;;;;5037363;28;20275;-95
2021/12/21 06:04:39;;;;;;;4.20;2.80;;;2.50;99.90;;;;;;5020726;28;20304;-96
2021/12/21 06:07:11;;;;;;;4.30;2.70;;;2.50;99.90;;;;;;5038249;28;20213;-95
2021/12/21 06:09:45;;;;;;;4.50;3.20;;;2.50;99.90;;;;;;5038428;28;20295;-95
2021/12/21 06:12:33;;;;;;;5.07;3.00;;;2.50;99.90;;;;;;5037793;28;20228;-96
2021/12/21 06:23:58;;;;;;;4.00;2.73;;;2.40;99.90;;;;;;5042281;28;20224;-95
2021/12/21 06:26:28;;;;;;;3.10;2.37;;;2.30;99.90;;;;;;5041312;28;20707;-94
2021/12/21 06:29:02;;;;;;;5.53;2.53;;;2.30;99.90;;;;;;5041442;28;20263;-94
2021/12/21 06:31:35;;;;;;;3.43;2.57;;;2.30;99.90;;;;;;5040676;28;20208;-94
2021/12/21 06:34:07;;;;;;;4.50;2.67;;;2.40;99.90;;;;;;5041494;28;20240;-94
2021/12/21 06:36:39;;;;;;;6.10;2.70;;;2.40;99.90;;;;;;5043819;28;20212;-94
2021/12/21 06:39:11;;;;;;;3.87;2.70;;;2.40;99.90;;;;;;5052366;28;20217;-94
2021/12/21 06:41:43;;;;;;;3.63;2.17;;;2.40;99.90;;;;;;5049415;28;20221;-94
2021/12/21 06:44:17;;;;;;;4.37;2.90;;;2.40;99.90;;;;;;5041578;28;20251;-93
2021/12/21 06:47:06;;;;;;;3.43;2.83;;;2.40;99.90;;;;;;5042636;28;20204;-94
2021/12/21 06:52:27;;;;;;;4.93;3.60;;;2.40;99.90;;;;;;5028121;28;20201;-94
2021/12/21 06:55:00;;;;;;;8.47;3.17;;;2.40;99.90;;;;;;5042930;28;20205;-94
2021/12/21 06:57:30;;;;;;;5.47;3.27;;;2.40;99.90;;;;;;5021034;28;20304;-93
2021/12/21 07:00:06;;;;;;;5.00;2.77;;;2.50;99.90;;;;;;5023867;28;20244;-94
2021/12/21 07:02:38;;;;;;;4.13;2.60;;;2.50;99.90;;;;;;5025688;28;20249;-93
2021/12/21 07:05:10;;;;;;;3.23;2.40;;;2.50;99.90;;;;;;5030526;28;20231;-94
2021/12/21 07:07:42;;;;;;;3.33;2.40;;;2.50;99.90;;;;;;5035982;28;20205;-94
2021/12/21 07:10:22;;;;;;;3.27;2.70;;;2.50;99.90;;;;;;5058314;28;20193;-95
2021/12/21 07:18:32;;;;;;;4.30;3.20;;;2.50;99.90;;;;;;5046831;28;20264;-94
2021/12/21 07:21:04;;;;;;;4.57;3.30;;;2.60;99.90;;;;;;5040710;28;20260;-96
2021/12/21 07:23:35;;;;;;;4.30;3.23;;;2.50;99.90;;;;;;5040503;28;20209;-95
2021/12/21 07:26:06;;;;;;;6.57;3.03;;;2.50;99.90;;;;;;5038425;28;20612;-94
2021/12/21 07:28:38;;;;;;;3.90;2.77;;;2.50;99.90;;;;;;5039275;28;20216;-94
2021/12/21 07:31:13;;;;;;;5.33;3.63;;;2.50;99.90;;;;;;5039554;28;20244;-95
2021/12/21 07:33:44;;;;;;;4.10;3.43;;;2.50;99.90;;;;;;5041955;28;20284;-95
2021/12/21 07:36:15;;;;;;;6.90;4.37;;;2.40;99.90;;;;;;5058272;28;20281;-95
2021/12/21 07:38:46;;;;;;;8.20;5.13;;;2.40;99.90;;;;;;5058504;28;20189;-94
2021/12/21 07:41:17;;;;;;;8.13;4.20;;;2.40;99.90;;;;;;5047721;28;20243;-94
2021/12/21 07:43:49;;;;;;;5.43;3.67;;;2.40;99.90;;;;;;5044798;28;20749;-94
2021/12/21 07:46:22;;;;;;;6.50;4.47;;;2.30;99.90;;;;;;5025282;28;20212;-95
2021/12/21 07:48:54;;;;;;;7.23;4.17;;;2.40;99.90;;;;;;5040090;28;20252;-94
2021/12/21 07:51:25;;;;;;;5.60;4.03;;;2.40;99.90;;;;;;5039549;28;20216;-95
2021/12/21 07:53:57;;;;;;;8.03;3.80;;;2.40;99.90;;;;;;5022316;28;20232;-95
2021/12/21 07:56:28;;;;;;;9.27;4.50;;;2.40;99.90;;;;;;5038428;28;20653;-94
2021/12/21 07:59:00;;;;;;;5.43;4.00;;;2.30;99.90;;;;;;5022495;28;20248;-94
2021/12/21 08:01:34;;;;;;;7.57;4.53;;;2.30;99.90;;;;;;5039641;28;20243;-95
2021/12/21 08:04:07;;;;;;;8.37;4.63;;;2.30;99.90;;;;;;5039122;28;20240;-95
2021/12/21 08:06:40;;;;;;;8.80;4.17;;;2.40;99.90;;;;;;5021772;28;20213;-96
2021/12/21 08:09:11;;;;;;;4.90;3.43;;;2.40;99.90;;;;;;5039821;28;20296;-94
2021/12/21 08:14:31;;;;;;;4.30;3.37;;;2.30;99.90;;;;;;5039754;28;20209;-96
2021/12/21 08:17:10;;;;;;;5.47;2.97;;;2.30;99.90;;;;;;5023178;28;20260;-96
2021/12/21 08:19:46;;;;;;;4.43;3.10;;;2.30;99.90;;;;;;5039002;28;20263;-95
2021/12/21 08:22:17;;;;;;;4.70;2.90;;;2.20;99.90;;;;;;5038744;28;20227;-96
2021/12/21 08:24:48;;;;;;;6.23;4.13;;;2.20;99.90;;;;;;5038761;28;20240;-96
2021/12/21 08:27:19;;;;;;;5.20;2.80;;;2.20;99.90;;;;;;5038938;28;20235;-94
2021/12/21 08:29:50;;;;;;;7.40;3.50;;;2.20;99.90;;;;;;5040424;28;20231;-96
2021/12/21 08:32:25;;;;;;;3.70;2.90;;;2.30;99.90;;;;;;5021563;28;20216;-96
2021/12/21 08:34:56;;;;;;;4.20;2.80;;;2.20;99.90;;;;;;5038738;28;20696;-96
2021/12/21 08:37:28;;;;;;;4.33;2.40;;;2.20;99.90;;;;;;5036961;28;20233;-94
2021/12/21 08:39:59;;;;;;;6.47;3.33;;;2.20;99.90;;;;;;5038668;28;20640;-95
2021/12/21 08:42:31;;;;;;;5.53;2.70;;;2.30;99.90;;;;;;5037925;28;20342;-95
2021/12/21 08:45:06;;;;;;;3.60;2.67;;;2.20;99.90;;;;;;5037963;28;20212;-94
2021/12/21 08:47:39;;;;;;;7.50;3.13;;;2.20;99.90;;;;;;5037210;28;20292;-95
2021/12/21 08:50:14;;;;;;;4.67;3.40;;;2.20;99.90;;;;;;5037382;28;20205;-95
2021/12/21 08:52:45;;;;;;;3.93;2.60;;;2.20;99.90;;;;;;5037191;28;20213;-94
2021/12/21 08:55:17;;;;;;;6.17;2.90;;;2.30;99.90;;;;;;5037662;28;20239;-94
2021/12/21 08:57:49;;;;;;;3.93;2.73;;;2.20;99.90;;;;;;5037341;28;20212;-95
2021/12/21 09:00:21;;;;;;;4.17;2.73;;;2.20;99.90;;;;;;5038106;28;20236;-94
2021/12/21 09:02:54;;;;;;;4.23;3.10;;;2.20;99.90;;;;;;5037924;28;20232;-95
2021/12/21 09:05:29;;;;;;;3.87;2.80;;;2.20;99.90;;;;;;5038287;28;20216;-95
2021/12/21 09:08:03;;;;;;;4.27;2.83;;;2.20;99.90;;;;;;5037788;28;20232;-95
2021/12/21 09:10:34;;;;;;;4.43;2.70;;;2.30;99.90;;;;;;5037873;28;20676;-95
2021/12/21 09:13:05;;;;;;;4.10;2.73;;;2.30;99.90;;;;;;5037463;28;20296;-94
2021/12/21 09:15:36;;;;;;;4.53;2.80;;;2.30;99.90;;;;;;5036928;28;20232;-94
2021/12/21 09:18:10;;;;;;;3.80;2.77;;;2.40;99.90;;;;;;5038676;28;20712;-95
2021/12/21 09:20:41;;;;;;;3.67;2.60;;;2.30;99.90;;;;;;5020882;28;20201;-96
2021/12/21 09:23:14;;;;;;;3.97;2.50;;;2.30;99.90;;;;;;5038128;28;20670;-95
2021/12/21 09:25:47;;;;;;;3.20;2.73;;;2.30;99.90;;;;;;5038279;28;20728;-95
2021/12/21 09:28:18;;;;;;;3.63;2.73;;;2.30;99.90;;;;;;5037412;28;20204;-95
2021/12/21 09:30:50;;;;;;;4.23;2.50;;;2.40;99.90;;;;;;5038035;28;20217;-95
2021/12/21 09:33:23;;;;;;;7.17;3.00;;;2.40;99.90;;;;;;5037511;28;20273;-94
2021/12/21 09:35:54;;;;;;;4.03;2.67;;;2.40;99.90;;;;;;5039636;28;20208;-94
2021/12/21 09:38:25;;;;;;;4.60;2.57;;;2.30;99.90;;;;;;5038140;28;20200;-95
2021/12/21 09:40:56;;;;;;;4.63;2.33;;;2.30;99.90;;;;;;5041718;28;20211;-95
2021/12/21 09:43:27;;;;;;;4.00;2.60;;;2.30;99.90;;;;;;5043431;28;20236;-95
2021/12/21 09:45:58;;;;;;;3.00;2.63;;;2.30;99.90;;;;;;5027192;28;20259;-95
2021/12/21 09:48:32;;;;;;;6.13;2.50;;;2.30;99.90;;;;;;5044307;28;20209;-94
2021/12/21 09:51:03;;;;;;;3.87;2.70;;;2.40;99.90;;;;;;5052549;28;20217;-94
2021/12/21 09:53:34;;;;;;;6.27;2.43;;;2.40;99.90;;;;;;5054852;28;20223;-94
2021/12/21 09:56:07;;;;;;;4.07;2.70;;;2.40;99.90;;;;;;5053051;28;20197;-94
2021/12/21 09:58:38;;;;;;;4.93;2.93;;;2.40;99.90;;;;;;5053909;28;20224;-94
2021/12/21 10:01:09;;;;;;;4.90;2.83;;;2.40;99.90;;;;;;5048068;28;20235;-93
2021/12/21 10:03:43;;;;;;;3.90;2.43;;;2.50;99.90;;;;;;5042383;28;20233;-94
2021/12/21 10:06:15;;;;;;;4.67;2.73;;;2.40;99.90;;;;;;5047196;28;20259;-94
2021/12/21 10:08:46;;;;;;;3.00;2.63;;;2.40;99.90;;;;;;5042200;28;20239;-94
2021/12/21 10:11:22;;;;;;;4.17;2.70;;;2.40;99.90;;;;;;5041086;28;20209;-94
2021/12/21 10:13:54;;;;;;;7.17;3.10;;;2.40;99.90;;;;;;5040757;28;20689;-94
2021/12/21 10:16:25;;;;;;;6.30;3.27;;;2.40;99.90;;;;;;5039885;28;20292;-95
2021/12/21 10:18:58;;;;;;;3.80;2.60;;;2.40;99.90;;;;;;5023111;28;20276;-94
2021/12/21 10:21:29;;;;;;;6.13;3.20;;;2.50;99.90;;;;;;5039168;28;20239;-95
2021/12/21 10:24:00;;;;;;;4.13;2.97;;;2.50;99.90;;;;;;5023316;28;20263;-92
2021/12/21 10:26:32;;;;;;;6.37;3.00;;;2.50;99.90;;;;;;5039273;28;20842;-95
2021/12/21 10:29:06;;;;;;;6.60;3.10;;;2.50;99.90;;;;;;5042572;28;20201;-95
2021/12/21 10:31:40;;;;;;;2.90;2.60;;;2.50;99.90;;;;;;5038761;28;20262;-95
2021/12/21 10:34:16;;;;;;;4.57;2.90;;;2.50;99.90;;;;;;5037332;28;20232;-96
2021/12/21 10:36:49;;;;;;;4.50;2.90;;;2.50;99.90;;;;;;5036235;28;20291;-95
2021/12/21 10:39:26;;;;;;;5.17;3.23;;;2.50;99.90;;;;;;5036873;28;20212;-94
2021/12/21 10:42:01;;;;;;;4.33;3.33;;;2.40;99.90;;;;;;5035562;28;20295;-94
2021/12/21 10:44:33;;;;;;;6.30;3.73;;;2.40;99.90;;;;;;5017844;28;20244;-96
2021/12/21 10:47:05;;;;;;;5.50;3.40;;;2.40;99.90;;;;;;5020941;28;20229;-95
2021/12/21 10:49:40;;;;;;;5.23;3.50;;;2.50;99.90;;;;;;5019234;28;20206;-95
2021/12/21 10:52:15;;;;;;;3.97;3.53;;;2.50;99.90;;;;;;5015151;28;20296;-95
2021/12/21 10:54:50;;;;;;;7.17;3.43;;;2.50;99.90;;;;;;5018543;28;20216;-95
2021/12/21 10:57:29;;;;;;;5.90;3.40;;;2.40;99.90;;;;;;5001052;28;20304;-94
2021/12/21 11:00:01;;;;;;;5.97;3.40;;;2.40;99.90;;;;;;5019314;28;20213;-95
2021/12/21 11:02:35;;;;;;;4.47;3.57;;;2.30;99.90;;;;;;5024386;28;20609;-94
2021/12/21 11:05:10;;;;;;;6.43;3.67;;;2.30;99.90;;;;;;5039298;28;20236;-95
2021/12/21 11:07:46;;;;;;;7.10;3.77;;;2.20;99.90;;;;;;5038278;28;20306;-94
2021/12/21 11:10:25;;;;;;;5.57;4.10;;;2.20;99.90;;;;;;5039275;28;20232;-95
2021/12/21 11:13:11;;;;;;;6.50;4.33;;;2.30;99.90;;;;;;5023685;28;20209;-94
2021/12/21 11:15:44;;;;;;;7.37;4.77;;;2.20;99.90;;;;;;5039424;28;20209;-96
2021/12/21 11:18:18;;;;;;;5.87;5.23;;;2.20;99.90;;;;;;5018345;28;20209;-95
2021/12/21 11:20:53;;;;;;;8.30;5.53;;;2.20;99.90;;;;;;5017125;28;20272;-92
2021/12/21 11:23:26;;;;;;;5.90;5.13;;;2.20;99.90;;;;;;5019045;28;20232;-95
2021/12/21 11:25:58;;;;;;;6.27;4.60;;;2.20;99.90;;;;;;5018894;28;20205;-94
2021/12/21 11:28:37;;;;;;;6.97;4.97;;;2.20;99.90;;;;;;5033558;28;20285;-94
2021/12/21 11:31:10;;;;;;;7.40;5.17;;;2.10;99.90;;;;;;5038531;28;20660;-94
2021/12/21 11:33:46;;;;;;;9.03;5.63;;;2.10;99.90;;;;;;5038178;28;20225;-95
2021/12/21 11:39:07;;;;;;;8.87;5.67;;;2.20;99.90;;;;;;5038537;28;20239;-95
2021/12/21 11:41:39;;;;;;;5.93;5.07;;;2.10;99.90;;;;;;5038460;28;20296;-95
2021/12/21 11:44:20;;;;;;;8.80;5.70;;;2.10;99.90;;;;;;5040949;28;20319;-95
2021/12/21 11:46:59;;;;;;;6.53;5.30;;;2.10;99.90;;;;;;5021691;28;20561;-95
2021/12/21 11:49:36;;;;;;;9.30;5.67;;;2.10;99.90;;;;;;5021634;28;20200;-95
2021/12/21 11:52:13;;;;;;;8.13;5.40;;;2.10;99.90;;;;;;5038871;28;20239;-96
2021/12/21 11:54:51;;;;;;;7.77;5.80;;;2.00;99.90;;;;;;5039256;28;20201;-95
2021/12/21 11:57:36;;;;;;;6.40;5.30;;;2.00;99.90;;;;;;5042723;28;20239;-94
2021/12/21 12:00:11;;;;;;;7.97;5.90;;;2.00;99.90;;;;;;5041785;28;20266;-94
2021/12/21 12:02:42;;;;;;;7.77;6.10;;;2.00;99.90;;;;;;5039713;28;20200;-94
2021/12/21 12:05:23;;;;;;;8.73;6.10;;;2.10;99.90;;;;;;5039215;28;20252;-93
2021/12/21 12:08:12;;;;;;;11.70;6.07;;;2.10;99.90;;;;;;5049620;28;20196;-95
2021/12/21 12:10:51;;;;;;;8.60;5.57;;;2.10;99.90;;;;;;5055376;28;20212;-95
2021/12/21 12:13:31;;;;;;;12.00;6.60;;;2.10;99.90;;;;;;5041342;28;20209;-95
2021/12/21 12:16:07;;;;;;;7.87;6.27;;;2.00;99.90;;;;;;5052249;28;20200;-94
2021/12/21 12:18:42;;;;;;;12.10;6.27;;;2.00;99.90;;;;;;5052952;28;20192;-91
2021/12/21 12:21:17;;;;;;;9.17;6.67;;;2.00;99.90;;;;;;5042156;28;20242;-95
2021/12/21 12:23:54;;;;;;;8.67;6.83;;;2.00;99.90;;;;;;5041607;28;20225;-95
2021/12/21 12:26:29;;;;;;;11.33;6.90;;;2.00;99.90;;;;;;5037971;28;20213;-95
2021/12/21 12:29:12;;;;;;;13.20;7.80;;;1.90;99.90;;;;;;5020775;28;20656;-94
2021/12/21 12:31:48;;;;;;;10.63;6.80;;;1.90;99.90;;;;;;5038762;28;20286;-95
2021/12/21 12:34:26;;;;;;;10.23;7.40;;;2.00;99.90;;;;;;5037308;28;20243;-94
2021/12/21 12:36:57;;;;;;;13.67;7.77;;;2.00;99.90;;;;;;5036911;28;20230;-95
2021/12/21 12:39:46;;;;;;;10.67;7.57;;;2.00;99.90;;;;;;5038238;28;20661;-96
2021/12/21 12:42:22;;;;;;;9.70;7.00;;;1.90;99.90;;;;;;5037226;28;20292;-94
2021/12/21 12:45:10;;;;;;;11.10;7.73;;;1.90;99.90;;;;;;5037377;28;20266;-96
2021/12/21 12:47:45;;;;;;;11.10;7.93;;;1.90;99.90;;;;;;5036762;28;20221;-95
2021/12/21 12:50:19;;;;;;;11.97;8.93;;;1.90;99.90;;;;;;5041036;28;20204;-96
2021/12/21 12:52:58;;;;;;;12.93;9.17;;;1.90;99.90;;;;;;5037611;28;20604;-95
2021/12/21 12:55:39;;;;;;;13.87;9.27;;;1.80;99.90;;;;;;5037595;28;20274;-95
2021/12/21 12:58:31;;;;;;;12.67;8.50;;;1.80;99.90;;;;;;5037397;28;20211;-95
2021/12/21 13:01:05;;;;;;;13.30;9.30;;;1.90;99.90;;;;;;5037627;28;20550;-95
2021/12/21 13:03:41;;;;;;;13.73;9.43;;;1.90;99.90;;;;;;5037908;28;20211;-95
2021/12/21 13:06:16;;;;;;;14.23;9.97;;;1.90;99.90;;;;;;5037378;28;20235;-95
2021/12/21 13:08:48;;;;;;;12.50;8.43;;;1.90;99.90;;;;;;5038821;28;20200;-95
2021/12/21 13:11:27;;;;;;;16.80;8.90;;;2.00;99.90;;;;;;5042937;28;20215;-95
2021/12/21 13:14:00;;;;;;;13.60;9.83;;;1.90;99.90;;;;;;5056210;28;20204;-96
2021/12/21 13:16:34;;;;;;;13.63;9.17;;;1.90;99.90;;;;;;5055896;28;20192;-95
2021/12/21 13:19:08;;;;;;;13.33;9.10;;;1.90;99.90;;;;;;5034888;28;20227;-94
2021/12/21 13:21:44;;;;;;;13.43;9.27;;;1.90;99.90;;;;;;5048738;28;20204;-93
2021/12/21 13:24:18;;;;;;;13.83;9.70;;;1.90;99.90;;;;;;5048594;28;20225;-94
2021/12/21 13:26:59;;;;;;;14.87;8.27;;;1.90;99.90;;;;;;5053114;28;20208;-93
2021/12/21 13:29:31;;;;;;;12.50;8.47;;;1.90;99.90;;;;;;5052362;28;20205;-94
2021/12/21 13:32:05;;;;;;;11.60;8.23;;;1.90;99.90;;;;;;5042199;28;20255;-93
2021/12/21 13:34:37;;;;;;;12.20;6.33;;;1.90;99.90;;;;;;5042457;28;20217;-95
2021/12/21 13:37:12;;;;;;;10.50;6.17;;;1.80;99.90;;;;;;5040032;28;20689;-94
2021/12/21 13:39:48;;;;;;;8.97;6.37;;;1.80;99.90;;;;;;5041448;28;20214;-95
2021/12/21 13:42:25;;;;;;;11.53;6.87;;;1.80;99.90;;;;;;5041664;28;20291;-94
2021/12/21 13:44:57;;;;;;;8.47;6.60;;;1.80;99.90;;;;;;5042144;28;20227;-94
2021/12/21 13:47:32;;;;;;;12.17;6.27;;;1.80;99.90;;;;;;5040649;28;20201;-95
2021/12/21 13:50:10;;;;;;;10.17;6.63;;;1.80;99.90;;;;;;5024273;28;20208;-94
2021/12/21 13:52:43;;;;;;;9.73;6.83;;;1.90;99.90;;;;;;5041479;28;20204;-94
2021/12/21 13:55:23;;;;;;;8.30;6.57;;;1.80;99.90;;;;;;5040616;28;20215;-95
2021/12/21 13:57:59;;;;;;;9.57;6.53;;;1.80;99.90;;;;;;5022808;28;20209;-95
2021/12/21 14:00:37;;;;;;;13.80;6.80;;;1.90;99.90;;;;;;5039623;28;20212;-95
2021/12/21 14:03:19;;;;;;;9.27;6.60;;;1.80;99.90;;;;;;5020849;28;20206;-95
2021/12/21 14:05:57;;;;;;;11.47;6.13;;;1.80;99.90;;;;;;5020416;28;20598;-94
2021/12/21 14:08:29;;;;;;;12.47;6.50;;;1.80;99.90;;;;;;5017748;28;20209;-94
2021/12/21 14:11:04;;;;;;;7.67;5.57;;;1.80;99.90;;;;;;5019840;28;20266;-95